Time;durP1;ratioP1;P1;durP2;ratioP2;P2;SDS_P1;SDS_P2;PMS_P1;PMS_P2;Temp;Humidity;BMP_temperature;BMP_pressure;BME280_temperature;BME280_humidity;BME280_pressure;Samples;Min_cycle;Max_cycle;Signal;HPM_P1;HPM_P2
2024/02/08 00:01:38;;;;;;;1.15;0.70;;;;;;;8.71;74.03;97348.09;4926611;28;104170;-76
2024/02/08 00:04:06;;;;;;;1.38;0.60;;;;;;;8.72;74.10;97347.09;4917622;28;103247;-75
2024/02/08 00:06:33;;;;;;;1.40;0.50;;;;;;;8.75;74.11;97350.19;4921393;28;102569;-76
2024/02/08 00:09:03;;;;;;;2.38;0.50;;;;;;;8.74;74.53;97348.53;4924714;28;102643;-75
2024/02/08 00:11:31;;;;;;;0.70;0.40;;;;;;;8.69;74.60;97350.94;4924096;28;103231;-76
2024/02/08 00:13:59;;;;;;;0.82;0.55;;;;;;;8.74;74.43;97342.47;4927307;28;103820;-75
2024/02/08 00:16:27;;;;;;;0.35;0.32;;;;;;;8.77;74.35;97348.16;4903786;28;102900;-75
2024/02/08 00:18:55;;;;;;;0.60;0.50;;;;;;;8.75;74.52;97349.34;4917928;28;102715;-75
2024/02/08 00:21:24;;;;;;;1.02;0.43;;;;;;;8.77;74.30;97337.59;4922686;28;103042;-75
2024/02/08 00:23:52;;;;;;;0.82;0.35;;;;;;;8.79;74.12;97338.25;4922009;28;104011;-75
2024/02/08 00:26:21;;;;;;;0.75;0.40;;;;;;;8.83;74.48;97332.56;4923542;28;103299;-74
2024/02/08 00:28:49;;;;;;;1.58;0.40;;;;;;;8.79;74.74;97325.03;4919029;28;103878;-75
2024/02/08 00:31:19;;;;;;;0.50;0.50;;;;;;;8.77;74.62;97324.41;4926727;28;103404;-75
2024/02/08 00:33:48;;;;;;;1.48;0.50;;;;;;;8.77;74.47;97320.97;4908106;28;103308;-75
2024/02/08 00:36:16;;;;;;;0.30;0.30;;;;;;;8.85;74.66;97323.44;4927978;28;103048;-75
2024/02/08 00:38:44;;;;;;;0.77;0.32;;;;;;;8.90;73.99;97322.88;4909814;28;103972;-75
2024/02/08 00:41:14;;;;;;;0.40;0.40;;;;;;;8.81;74.79;97338.03;4924580;28;102646;-75
2024/02/08 00:43:43;;;;;;;1.52;0.40;;;;;;;8.83;74.42;97327.28;4925278;28;103711;-74
2024/02/08 00:46:11;;;;;;;0.40;0.40;;;;;;;8.87;74.51;97321.44;4925635;28;102699;-75
2024/02/08 00:48:43;;;;;;;0.22;0.22;;;;;;;8.85;74.56;97326.09;4919730;28;104335;-74
2024/02/08 00:51:11;;;;;;;0.28;0.28;;;;;;;8.86;74.82;97319.00;4924407;28;103360;-75
2024/02/08 00:53:39;;;;;;;1.13;0.40;;;;;;;8.89;74.51;97318.63;4904418;28;104272;-75
2024/02/08 00:56:13;;;;;;;0.40;0.30;;;;;;;9.00;74.48;97320.75;4914520;28;102664;-75
2024/02/08 00:58:41;;;;;;;0.98;0.50;;;;;;;8.95;74.21;97321.31;4928524;28;103059;-74
2024/02/08 01:01:13;;;;;;;0.75;0.30;;;;;;;8.89;74.41;97324.69;4906700;28;104561;-75
2024/02/08 01:03:41;;;;;;;0.57;0.40;;;;;;;8.93;74.64;97318.06;4925063;28;102602;-74
2024/02/08 01:06:09;;;;;;;0.50;0.40;;;;;;;8.93;74.67;97314.56;4923971;28;102560;-75
2024/02/08 01:08:37;;;;;;;0.40;0.20;;;;;;;9.00;74.41;97318.09;4903118;28;102919;-74
2024/02/08 01:11:05;;;;;;;0.40;0.40;;;;;;;8.91;74.48;97321.88;4920340;28;103337;-74
2024/02/08 01:13:33;;;;;;;0.20;0.20;;;;;;;8.95;74.13;97323.13;4920414;28;103339;-75
2024/02/08 01:16:01;;;;;;;0.85;0.40;;;;;;;9.00;73.89;97320.75;4925396;28;103948;-75
2024/02/08 01:18:32;;;;;;;0.30;0.25;;;;;;;9.09;74.07;97319.59;4921542;28;102827;-74
2024/02/08 01:21:03;;;;;;;0.50;0.50;;;;;;;9.05;73.95;97323.63;4917822;28;103384;-75
2024/02/08 01:23:33;;;;;;;0.77;0.40;;;;;;;8.99;74.78;97329.66;4924647;28;105077;-74
2024/02/08 01:26:03;;;;;;;0.52;0.35;;;;;;;8.95;74.65;97329.22;4918748;28;102581;-74
2024/02/08 01:28:31;;;;;;;0.50;0.22;;;;;;;9.03;74.28;97332.75;4917996;28;103989;-75
2024/02/08 01:30:58;;;;;;;0.45;0.30;;;;;;;9.03;74.23;97325.63;4920115;28;104100;-75
2024/02/08 01:33:26;;;;;;;1.60;0.30;;;;;;;9.03;73.83;97324.81;4925763;28;103250;-75
2024/02/08 01:35:56;;;;;;;0.47;0.30;;;;;;;9.08;74.37;97325.06;4920558;28;103873;-75
2024/02/08 01:38:27;;;;;;;0.30;0.30;;;;;;;9.07;74.05;97326.06;4928765;28;104333;-75
2024/02/08 01:40:55;;;;;;;0.40;0.30;;;;;;;9.09;74.00;97316.94;4929535;28;104206;-74
2024/02/08 01:43:25;;;;;;;0.20;0.20;;;;;;;9.08;74.02;97317.13;4923081;28;103260;-75
2024/02/08 01:45:56;;;;;;;1.77;0.40;;;;;;;9.06;74.08;97313.88;4922163;28;102643;-75
2024/02/08 01:48:25;;;;;;;2.33;1.25;;;;;;;9.02;74.41;97308.16;4920858;28;102696;-74
2024/02/08 01:50:59;;;;;;;0.43;0.20;;;;;;;9.16;74.20;97313.50;4903121;28;105811;-74
2024/02/08 01:53:28;;;;;;;0.95;0.50;;;;;;;9.09;74.60;97309.03;4911243;28;105885;-75
2024/02/08 01:56:02;;;;;;;0.50;0.28;;;;;;;9.07;74.26;97316.31;4928582;28;103827;-75
2024/02/08 01:58:31;;;;;;;0.30;0.30;;;;;;;9.04;74.25;97318.50;4923502;28;102664;-76
2024/02/08 02:01:13;;;;;;;0.35;0.28;;;;;;;9.16;74.12;97313.50;4916175;28;104095;-75
2024/02/08 02:03:41;;;;;;;0.20;0.20;;;;;;;9.15;74.42;97314.53;4911012;28;104367;-75
2024/02/08 02:06:13;;;;;;;0.43;0.25;;;;;;;9.03;74.44;97308.97;4921904;28;102847;-76
2024/02/08 02:08:52;;;;;;;0.30;0.30;;;;;;;9.08;74.70;97307.38;4927409;28;104591;-76
2024/02/08 02:11:25;;;;;;;0.30;0.30;;;;;;;9.08;74.42;97302.09;4904736;28;103807;-75
2024/02/08 02:13:54;;;;;;;0.30;0.30;;;;;;;9.16;74.26;97310.88;4921583;28;103394;-75
2024/02/08 02:16:25;;;;;;;5.47;0.68;;;;;;;9.10;74.60;97309.81;4924582;28;102680;-76
2024/02/08 02:18:56;;;;;;;0.50;0.20;;;;;;;9.23;74.49;97309.91;4906062;28;102967;-75
2024/02/08 02:21:27;;;;;;;1.27;0.60;;;;;;;9.11;74.73;97300.91;4920767;28;104093;-76
2024/02/08 02:23:55;;;;;;;0.60;0.15;;;;;;;9.20;74.66;97301.56;4911480;28;103875;-76
2024/02/08 02:26:23;;;;;;;0.20;0.20;;;;;;;9.10;74.97;97289.53;4926453;28;102759;-76
2024/02/08 02:28:52;;;;;;;0.65;0.20;;;;;;;9.18;74.30;97296.47;4906919;28;103736;-76
2024/02/08 02:31:23;;;;;;;1.83;0.20;;;;;;;9.10;74.73;97289.53;4925468;28;103582;-75
2024/02/08 02:33:53;;;;;;;1.10;0.25;;;;;;;9.27;74.43;97289.22;4905491;28;104254;-76
2024/02/08 02:36:25;;;;;;;0.45;0.40;;;;;;;9.24;74.46;97281.69;4907592;28;103116;-76
2024/02/08 02:38:53;;;;;;;0.88;0.32;;;;;;;9.10;74.49;97278.97;4922481;28;102839;-76
2024/02/08 02:41:25;;;;;;;0.55;0.40;;;;;;;9.18;74.74;97274.53;4908456;28;103240;-76
2024/02/08 02:43:53;;;;;;;1.20;0.30;;;;;;;9.24;74.31;97273.75;4931899;28;103095;-76
2024/02/08 02:46:22;;;;;;;0.47;0.30;;;;;;;9.13;74.66;97278.56;4905950;28;102675;-74
2024/02/08 02:48:50;;;;;;;0.20;0.20;;;;;;;9.12;74.71;97281.41;4927830;28;103927;-75
2024/02/08 02:51:19;;;;;;;0.28;0.25;;;;;;;9.24;74.61;97268.47;4929916;28;103280;-75
2024/02/08 02:53:48;;;;;;;0.43;0.30;;;;;;;9.08;75.19;97270.41;4908725;28;104240;-75
2024/02/08 02:56:19;;;;;;;0.30;0.20;;;;;;;9.16;74.84;97266.78;4918009;28;103608;-74
2024/02/08 02:58:47;;;;;;;0.35;0.20;;;;;;;9.12;74.98;97269.00;4927347;28;105448;-74
2024/02/08 03:01:15;;;;;;;0.20;0.20;;;;;;;9.20;75.02;97267.22;4924887;28;103297;-75
2024/02/08 03:03:43;;;;;;;0.40;0.20;;;;;;;9.18;74.73;97266.59;4913827;28;102665;-75
2024/02/08 03:06:14;;;;;;;0.30;0.25;;;;;;;9.21;74.49;97259.09;4906329;28;102763;-75
2024/02/08 03:08:44;;;;;;;0.10;0.10;;;;;;;9.19;74.46;97266.41;4930121;28;102696;-75
2024/02/08 03:11:14;;;;;;;0.65;0.22;;;;;;;9.24;74.12;97264.00;4924407;28;103332;-75
2024/02/08 03:13:43;;;;;;;0.30;0.30;;;;;;;9.22;74.48;97259.91;4926458;28;103262;-74
2024/02/08 03:16:14;;;;;;;0.22;0.20;;;;;;;9.31;74.18;97258.75;4929183;28;102685;-74
2024/02/08 03:18:45;;;;;;;0.32;0.20;;;;;;;9.29;74.08;97252.84;4905393;28;104907;-75
2024/02/08 03:21:17;;;;;;;0.30;0.30;;;;;;;9.24;74.45;97253.44;4924794;28;104535;-76
2024/02/08 03:23:47;;;;;;;0.70;0.20;;;;;;;9.32;74.40;97254.28;4927012;28;103227;-75
2024/02/08 03:26:17;;;;;;;0.90;0.30;;;;;;;9.27;74.42;97246.94;4923155;28;102640;-74
2024/02/08 03:28:46;;;;;;;0.13;0.13;;;;;;;9.26;74.75;97242.66;4908162;28;104134;-74
2024/02/08 03:31:14;;;;;;;0.75;0.25;;;;;;;9.32;74.41;97243.72;4907571;28;104217;-75
2024/02/08 03:33:43;;;;;;;1.00;0.20;;;;;;;9.28;74.33;97246.72;4920485;28;103222;-74
2024/02/08 03:36:12;;;;;;;0.20;0.20;;;;;;;9.25;74.33;97254.25;4906742;28;102671;-74
2024/02/08 03:38:40;;;;;;;0.70;0.28;;;;;;;9.28;74.26;97259.13;4926122;28;102744;-75
2024/02/08 03:41:10;;;;;;;0.10;0.10;;;;;;;9.37;74.05;97263.25;4927391;28;103228;-75
2024/02/08 03:43:40;;;;;;;0.43;0.22;;;;;;;9.26;74.49;97255.88;4928174;28;103862;-77
2024/02/08 03:46:08;;;;;;;0.20;0.20;;;;;;;9.35;74.27;97265.25;4921889;28;102703;-75
2024/02/08 03:48:37;;;;;;;0.47;0.28;;;;;;;9.27;74.53;97257.50;4907027;28;104009;-75
2024/02/08 03:51:10;;;;;;;1.27;0.30;;;;;;;9.28;74.02;97262.59;4924840;28;103301;-75
2024/02/08 03:53:38;;;;;;;0.95;0.15;;;;;;;9.31;74.19;97260.56;4907545;28;104220;-75
2024/02/08 03:56:07;;;;;;;0.43;0.20;;;;;;;9.34;73.94;97255.72;4920741;28;102578;-75
2024/02/08 03:58:36;;;;;;;0.10;0.10;;;;;;;9.36;73.97;97260.81;4929918;28;103220;-75
2024/02/08 04:01:08;;;;;;;0.40;0.20;;;;;;;9.37;74.04;97263.25;4909348;28;104242;-74
2024/02/08 04:03:53;;;;;;;0.40;0.28;;;;;;;9.35;74.11;97273.19;4923923;28;103197;-75
2024/02/08 04:06:37;;;;;;;0.65;0.20;;;;;;;9.39;74.02;97265.69;4901026;28;102720;-75
2024/02/08 04:09:16;;;;;;;0.20;0.20;;;;;;;9.37;73.76;97257.16;4921220;28;102952;-74
2024/02/08 04:53:34;;;;;;;0.30;0.30;;;;;;;9.13;77.11;97241.59;4913324;28;104465;-75
2024/02/08 04:56:07;;;;;;;1.50;0.40;;;;;;;9.23;76.93;97245.69;4915444;28;104117;-75
2024/02/08 04:58:39;;;;;;;0.40;0.40;;;;;;;9.27;76.49;97244.28;4904038;28;104188;-75
2024/02/08 05:01:27;;;;;;;0.30;0.30;;;;;;;9.21;76.94;97231.84;4923889;28;102738;-75
2024/02/08 05:08:24;;;;;;;0.20;0.20;;;;;;;9.12;77.28;97229.38;4898975;28;104824;-76
2024/02/08 05:10:52;;;;;;;1.40;1.30;;;;;;;9.15;77.83;97227.38;4901889;28;103210;-75
2024/02/08 05:13:24;;;;;;;0.32;0.32;;;;;;;9.11;78.08;97222.47;4907858;28;103568;-75
2024/02/08 05:15:52;;;;;;;0.70;0.50;;;;;;;9.03;78.84;97220.00;4917589;28;102679;-75
2024/02/08 05:18:22;;;;;;;1.67;0.50;;;;;;;9.08;78.94;97208.84;4897691;28;104129;-79
2024/02/08 05:20:50;;;;;;;0.45;0.30;;;;;;;8.88;79.93;97221.91;4903469;28;103291;-78
2024/02/08 05:23:18;;;;;;;0.30;0.30;;;;;;;8.93;79.74;97219.53;4899313;28;102691;-76
2024/02/08 05:25:48;;;;;;;1.92;0.40;;;;;;;8.90;79.59;97212.00;4923595;28;103091;-76
2024/02/08 05:28:16;;;;;;;1.08;0.25;;;;;;;8.95;79.58;97218.31;4887319;28;104345;-75
2024/02/08 05:30:46;;;;;;;0.75;0.30;;;;;;;8.84;80.11;97224.13;4918833;28;103265;-76
2024/02/08 05:33:15;;;;;;;1.00;0.40;;;;;;;8.79;80.72;97226.56;4922345;28;103095;-74
2024/02/08 05:35:45;;;;;;;0.65;0.30;;;;;;;8.77;80.55;97234.66;4914608;28;103936;-79
2024/02/08 05:38:15;;;;;;;0.30;0.30;;;;;;;8.84;80.74;97234.69;4921672;28;103222;-74
2024/02/08 05:40:44;;;;;;;1.75;0.50;;;;;;;8.88;80.45;97221.91;4928293;28;103194;-74
2024/02/08 05:43:15;;;;;;;1.30;0.35;;;;;;;8.87;80.78;97225.56;4914758;28;102677;-77
2024/02/08 05:45:44;;;;;;;1.45;0.43;;;;;;;8.86;80.80;97221.31;4904836;28;102691;-77
2024/02/08 05:48:13;;;;;;;1.27;0.38;;;;;;;8.78;80.70;97215.16;4887331;28;104607;-77
2024/02/08 05:50:44;;;;;;;0.90;0.40;;;;;;;8.88;81.43;97214.84;4905904;28;104361;-78
2024/02/08 05:57:40;;;;;;;3.65;0.47;;;;;;;8.77;81.59;97224.09;4905347;28;102963;-68
2024/02/08 06:04:24;;;;;;;0.65;0.30;;;;;;;8.78;81.53;97217.00;4916401;28;103074;-69
2024/02/08 06:06:58;;;;;;;1.02;0.40;;;;;;;8.83;81.57;97216.41;4912563;28;102844;-69
2024/02/08 06:09:47;;;;;;;0.47;0.30;;;;;;;8.83;81.71;97209.31;4923040;28;103132;-69
2024/02/08 06:12:28;;;;;;;3.10;0.40;;;;;;;8.83;81.96;97214.59;4920830;28;103277;-69
2024/02/08 06:14:58;;;;;;;2.28;0.43;;;;;;;8.77;82.47;97210.09;4904438;28;103158;-66
2024/02/08 06:17:31;;;;;;;0.43;0.40;;;;;;;8.68;82.48;97227.88;4920576;28;103000;-66
2024/02/08 06:20:08;;;;;;;2.42;0.90;;;;;;;8.75;82.29;97215.56;4908016;28;103377;-68
2024/02/08 06:22:43;;;;;;;1.40;0.40;;;;;;;8.70;82.17;97217.97;4878740;28;103149;-71
2024/02/08 06:25:27;;;;;;;2.78;0.70;;;;;;;8.72;82.56;97228.31;4913200;28;103801;-70
2024/02/08 06:27:56;;;;;;;3.40;0.60;;;;;;;8.70;82.47;97232.97;4922321;28;102687;-71
2024/02/08 06:30:25;;;;;;;4.10;0.60;;;;;;;8.73;83.02;97220.19;4916364;28;102695;-71
2024/02/08 06:37:30;;;;;;;4.22;0.60;;;;;;;8.61;83.13;97233.13;4907699;28;103056;-71
2024/02/08 06:39:57;;;;;;;0.40;0.40;;;;;;;8.65;83.06;97233.56;4917221;28;102768;-71
2024/02/08 06:42:44;;;;;;;0.60;0.40;;;;;;;8.68;82.91;97235.00;4915923;28;104068;-71
2024/02/08 07:38:07;;;;;;;5.30;0.60;;;;;;;8.83;82.93;97219.03;4896732;28;107690;-73
2024/02/08 07:40:36;;;;;;;3.25;0.60;;;;;;;8.85;82.67;97222.31;4938832;28;102606;-73
2024/02/08 07:43:19;;;;;;;1.65;0.60;;;;;;;8.89;82.72;97220.91;4920377;28;103944;-73
2024/02/08 07:45:51;;;;;;;3.13;0.50;;;;;;;8.96;82.84;97238.44;4910968;28;104087;-73
2024/02/08 07:48:37;;;;;;;2.03;0.40;;;;;;;8.93;82.52;97235.38;4926209;28;103338;-72
2024/02/08 07:51:08;;;;;;;0.60;0.35;;;;;;;8.92;82.87;97225.81;4934453;28;102700;-73
2024/02/08 07:53:45;;;;;;;0.63;0.40;;;;;;;8.93;82.81;97232.72;4937023;28;103003;-71
2024/02/08 07:56:29;;;;;;;8.70;2.35;;;;;;;8.98;82.83;97230.31;4936574;28;103228;-72
2024/02/08 07:59:03;;;;;;;0.85;0.30;;;;;;;9.07;82.23;97231.78;4909896;28;104603;-72
2024/02/08 08:01:38;;;;;;;0.40;0.40;;;;;;;9.05;82.33;97223.25;4917925;28;102701;-73
2024/02/08 08:04:09;;;;;;;0.47;0.47;;;;;;;9.14;82.02;97231.81;4933481;28;102648;-71
2024/02/08 08:06:47;;;;;;;0.40;0.38;;;;;;;9.19;81.79;97228.63;4931104;28;104165;-73
2024/02/08 08:09:21;;;;;;;0.40;0.40;;;;;;;9.13;81.62;97231.03;4934109;28;103242;-73
2024/02/08 08:11:51;;;;;;;1.38;0.30;;;;;;;9.16;81.61;97229.81;4909536;28;102768;-72
2024/02/08 08:17:24;;;;;;;0.68;0.30;;;;;;;9.30;81.52;97225.41;4927317;28;103405;-74
2024/02/08 08:20:04;;;;;;;2.20;0.30;;;;;;;9.30;81.53;97230.69;4931901;28;103457;-73
2024/02/08 08:22:50;;;;;;;0.40;0.40;;;;;;;9.36;81.10;97218.53;4892920;28;102989;-73
2024/02/08 08:25:29;;;;;;;0.85;0.40;;;;;;;9.43;80.60;97217.56;4933949;28;103828;-73
2024/02/08 08:31:00;;;;;;;0.40;0.30;;;;;;;9.62;80.38;97209.88;4917861;28;103384;-73
2024/02/08 08:36:28;;;;;;;0.75;0.25;;;;;;;9.61;79.19;97208.25;4947645;28;103075;-73
2024/02/08 08:41:54;;;;;;;0.85;0.30;;;;;;;9.71;80.12;97219.28;5102611;27;102755;-67
2024/02/08 08:44:30;;;;;;;1.00;0.30;;;;;;;9.72;79.52;97223.56;5083166;27;102798;-67
2024/02/08 08:47:00;;;;;;;1.33;0.40;;;;;;;9.63;79.70;97217.63;4988787;27;103276;-67
2024/02/08 08:49:29;;;;;;;0.63;0.30;;;;;;;9.78;79.28;97212.16;4996690;28;104163;-67
2024/02/08 08:52:04;;;;;;;0.60;0.20;;;;;;;9.74;79.17;97208.28;5000292;28;103019;-68
2024/02/08 08:54:36;;;;;;;0.40;0.30;;;;;;;9.87;79.16;97215.44;5005061;27;102694;-67
2024/02/08 08:57:25;;;;;;;1.17;0.35;;;;;;;9.83;78.72;97208.94;5019863;27;103244;-68
2024/02/08 08:59:56;;;;;;;0.95;0.57;;;;;;;9.99;78.67;97207.72;4996568;28;103226;-67
2024/02/08 09:02:24;;;;;;;0.50;0.40;;;;;;;9.98;78.96;97211.38;5001361;27;102586;-68
2024/02/08 09:04:52;;;;;;;0.52;0.32;;;;;;;9.91;79.10;97210.56;4992372;28;102822;-67
2024/02/08 09:07:20;;;;;;;0.47;0.45;;;;;;;9.89;79.12;97209.94;5000449;28;103090;-68
2024/02/08 09:10:04;;;;;;;2.00;0.70;;;;;;;9.92;79.25;97212.22;5016280;27;103849;-67
2024/02/08 09:12:39;;;;;;;1.17;0.45;;;;;;;9.96;79.06;97210.78;5022459;27;102979;-68
2024/02/08 09:15:27;;;;;;;0.65;0.60;;;;;;;9.97;79.43;97215.06;5019152;27;103916;-67
2024/02/08 09:18:07;;;;;;;1.42;0.40;;;;;;;9.96;79.39;97202.84;5020140;27;105855;-67
2024/02/08 09:20:37;;;;;;;0.98;0.50;;;;;;;10.01;79.05;97200.44;5023557;27;103455;-67
2024/02/08 09:23:13;;;;;;;0.98;0.50;;;;;;;10.04;78.51;97202.66;5015688;27;102978;-67
2024/02/08 09:25:44;;;;;;;1.38;0.50;;;;;;;10.16;78.61;97212.66;5025244;27;103931;-67
2024/02/08 09:28:26;;;;;;;1.13;0.57;;;;;;;10.14;78.51;97204.91;5021765;27;102835;-67
2024/02/08 09:31:12;;;;;;;0.25;0.25;;;;;;;10.08;77.96;97206.53;5007802;27;103322;-67
2024/02/08 09:33:48;;;;;;;1.58;0.50;;;;;;;10.24;77.92;97207.16;5031401;27;102731;-67
2024/02/08 09:36:16;;;;;;;0.85;0.40;;;;;;;10.39;77.77;97205.16;5020885;27;102792;-67
2024/02/08 09:38:45;;;;;;;2.15;0.50;;;;;;;10.35;77.50;97214.53;5015641;27;103437;-68
2024/02/08 09:41:17;;;;;;;0.50;0.40;;;;;;;10.38;77.71;97208.81;5021474;27;104056;-68
2024/02/08 09:43:48;;;;;;;1.38;0.32;;;;;;;10.53;77.59;97213.09;5017807;27;102969;-67
2024/02/08 09:46:49;;;;;;;2.25;0.40;;;;;;;10.53;77.33;97207.81;5020421;27;102872;-69
2024/02/08 09:49:21;;;;;;;0.40;0.35;;;;;;;10.46;77.21;97210.44;5016676;27;103345;-70
2024/02/08 09:51:53;;;;;;;0.60;0.40;;;;;;;10.57;76.71;97198.44;5015496;27;103270;-70
2024/02/08 09:54:33;;;;;;;0.40;0.40;;;;;;;10.52;77.15;97211.47;5005609;27;103102;-70
2024/02/08 09:57:20;;;;;;;1.25;0.50;;;;;;;10.55;76.96;97205.78;5020348;27;103803;-69
2024/02/08 10:00:10;;;;;;;1.20;0.45;;;;;;;10.65;76.98;97206.19;5006344;28;104905;-69
2024/02/08 10:02:54;;;;;;;0.85;0.52;;;;;;;10.55;76.24;97203.94;5006425;28;103205;-69
2024/02/08 10:05:48;;;;;;;0.40;0.30;;;;;;;10.73;76.62;97202.47;5015146;27;103177;-69
2024/02/08 10:08:28;;;;;;;0.50;0.40;;;;;;;10.70;76.44;97202.91;5004375;27;103778;-69
2024/02/08 10:11:11;;;;;;;0.30;0.30;;;;;;;10.62;76.12;97201.28;5006887;28;103380;-67
2024/02/08 10:13:53;;;;;;;0.68;0.50;;;;;;;10.57;75.67;97193.13;5005440;28;103287;-69
2024/02/08 10:16:29;;;;;;;2.22;0.35;;;;;;;10.69;75.59;97186.22;4999171;27;102893;-69
2024/02/08 10:19:07;;;;;;;0.88;0.50;;;;;;;10.70;75.95;97187.00;5016922;27;103954;-70
2024/02/08 10:21:35;;;;;;;0.43;0.30;;;;;;;10.70;75.73;97177.25;5001414;27;104343;-69
2024/02/08 10:24:25;;;;;;;0.65;0.40;;;;;;;10.85;75.39;97184.97;5007096;28;103270;-67
2024/02/08 10:26:58;;;;;;;0.88;0.32;;;;;;;10.74;75.39;97178.47;5007044;28;102687;-69
2024/02/08 10:29:31;;;;;;;0.50;0.47;;;;;;;10.80;75.00;97176.81;5010067;28;103058;-67
2024/02/08 10:32:06;;;;;;;1.75;0.32;;;;;;;10.88;75.49;97173.94;5013228;27;103213;-69
2024/02/08 10:34:39;;;;;;;1.25;0.50;;;;;;;10.91;74.84;97165.59;5004681;28;103213;-68
2024/02/08 10:37:46;;;;;;;0.40;0.30;;;;;;;10.93;74.96;97165.38;5014967;27;102579;-68
2024/02/08 10:40:34;;;;;;;1.90;0.25;;;;;;;11.08;74.44;97157.16;5008689;27;103752;-68
2024/02/08 10:43:16;;;;;;;1.25;0.20;;;;;;;10.94;73.92;97159.06;5005419;28;104111;-68
2024/02/08 10:45:53;;;;;;;1.35;0.40;;;;;;;10.90;74.88;97155.19;5000068;28;103450;-68
2024/02/08 10:48:24;;;;;;;2.15;0.50;;;;;;;10.88;74.85;97141.34;5004581;28;102692;-67
2024/02/08 10:51:02;;;;;;;0.52;0.40;;;;;;;11.02;75.16;97140.28;5010051;28;103777;-67
2024/02/08 10:53:45;;;;;;;0.45;0.32;;;;;;;10.89;75.94;97151.72;4999544;28;104338;-68
2024/02/08 10:56:17;;;;;;;0.98;0.43;;;;;;;10.84;76.35;97150.75;5002887;28;103333;-68
2024/02/08 10:58:55;;;;;;;1.45;0.50;;;;;;;10.56;77.36;97143.88;5004114;28;102710;-68
2024/02/08 11:01:33;;;;;;;0.73;0.40;;;;;;;10.70;77.28;97131.41;4994370;27;104091;-68
2024/02/08 11:04:17;;;;;;;1.30;0.43;;;;;;;10.71;77.60;97148.94;5008292;27;103675;-68
2024/02/08 11:06:54;;;;;;;1.02;0.40;;;;;;;10.58;78.07;97131.22;5018070;27;104168;-68
2024/02/08 11:09:27;;;;;;;2.05;0.50;;;;;;;10.60;78.93;97134.50;5010785;28;102627;-68
2024/02/08 11:12:03;;;;;;;1.83;0.60;;;;;;;10.68;78.00;97130.81;5001603;28;102630;-68
2024/02/08 11:14:40;;;;;;;1.35;0.68;;;;;;;10.82;78.04;97115.69;5005321;28;104426;-68
2024/02/08 11:17:20;;;;;;;0.98;0.52;;;;;;;11.02;77.76;97116.44;5001802;27;103159;-68
2024/02/08 11:19:56;;;;;;;0.60;0.40;;;;;;;11.01;77.31;97114.00;5005004;27;102645;-68
2024/02/08 11:22:35;;;;;;;3.60;0.40;;;;;;;11.07;77.70;97100.72;5005324;27;103811;-68
2024/02/08 11:27:49;;;;;;;2.15;0.30;;;;;;;11.31;76.51;97097.56;5011066;27;104105;-69
2024/02/08 11:30:21;;;;;;;1.38;0.65;;;;;;;11.34;76.12;97087.34;5006844;28;102607;-69
2024/02/08 11:33:01;;;;;;;1.35;0.35;;;;;;;11.33;76.02;97083.09;5004517;28;103764;-69
2024/02/08 11:35:32;;;;;;;0.95;0.52;;;;;;;11.38;76.43;97077.94;4999605;27;103259;-69
2024/02/08 11:38:11;;;;;;;0.73;0.40;;;;;;;11.30;74.70;97074.75;5000837;28;104169;-69
2024/02/08 11:40:41;;;;;;;0.52;0.40;;;;;;;11.33;75.26;97059.22;5004904;28;103880;-68
2024/02/08 11:43:19;;;;;;;1.50;0.60;;;;;;;11.43;75.43;97059.56;5006693;28;102682;-68
2024/02/08 11:45:52;;;;;;;1.23;0.40;;;;;;;11.39;75.17;97057.56;5007310;27;104250;-68
2024/02/08 11:48:28;;;;;;;0.68;0.47;;;;;;;11.42;74.61;97051.81;4992383;27;104673;-69
2024/02/08 11:50:59;;;;;;;3.45;0.68;;;;;;;11.54;74.17;97058.06;5008346;27;103073;-68
2024/02/08 11:53:31;;;;;;;0.57;0.40;;;;;;;11.63;74.21;97053.31;5005570;27;102736;-68
2024/02/08 11:56:03;;;;;;;2.65;0.60;;;;;;;11.57;73.16;97043.56;5005807;27;104065;-68
2024/02/08 11:58:35;;;;;;;3.03;0.40;;;;;;;11.61;73.51;97045.56;5001040;27;104202;-68
2024/02/08 12:01:04;;;;;;;1.33;0.45;;;;;;;11.67;73.22;97048.38;5008583;28;103118;-70
2024/02/08 12:03:32;;;;;;;2.30;0.38;;;;;;;11.66;73.52;97039.63;5001462;27;104050;-70
2024/02/08 12:06:04;;;;;;;4.22;0.90;;;;;;;11.62;72.34;97035.78;5009026;28;104557;-70
2024/02/08 12:08:32;;;;;;;1.98;0.60;;;;;;;11.69;72.14;97041.03;5002152;28;103200;-68
2024/02/08 12:11:20;;;;;;;2.78;0.77;;;;;;;11.73;72.54;97027.13;4999078;27;103000;-68
2024/02/08 12:13:53;;;;;;;3.83;0.65;;;;;;;11.84;71.47;97022.13;5009915;27;103966;-68
2024/02/08 12:16:25;;;;;;;1.80;0.50;;;;;;;12.08;71.20;97012.56;5004555;28;104849;-69
2024/02/08 12:18:59;;;;;;;2.83;0.65;;;;;;;12.25;70.47;97012.81;5007023;27;103159;-70
2024/02/08 12:21:28;;;;;;;8.40;1.00;;;;;;;12.18;69.95;97006.75;5004093;28;102782;-70
2024/02/08 12:23:57;;;;;;;3.38;0.90;;;;;;;12.14;69.46;97016.19;4996134;27;103208;-68
2024/02/08 12:26:32;;;;;;;5.28;1.17;;;;;;;12.17;69.37;97021.03;4995847;28;103032;-68
2024/02/08 12:29:04;;;;;;;4.55;1.20;;;;;;;12.21;68.94;97017.75;4995812;27;103857;-69
2024/02/08 12:31:34;;;;;;;10.40;1.77;;;;;;;12.24;68.93;97017.28;4997273;28;102981;-69
2024/02/08 12:34:04;;;;;;;6.20;1.25;;;;;;;12.39;69.44;97024.09;4989751;27;103544;-69
2024/02/08 12:36:36;;;;;;;7.25;1.10;;;;;;;12.32;69.78;97029.47;5004907;27;103320;-69
2024/02/08 12:39:17;;;;;;;10.85;1.23;;;;;;;12.28;68.75;97033.59;5007197;28;103464;-69
2024/02/08 12:41:47;;;;;;;4.53;1.05;;;;;;;12.31;69.07;97033.16;4998126;28;103334;-69
2024/02/08 12:44:15;;;;;;;7.55;1.00;;;;;;;12.32;68.25;97033.97;5006057;28;102943;-69
2024/02/08 12:46:46;;;;;;;8.15;1.08;;;;;;;12.28;67.88;97017.69;5009818;27;103288;-69
2024/02/08 12:49:17;;;;;;;4.22;1.15;;;;;;;12.46;67.57;97029.31;5002635;28;103411;-70
2024/02/08 12:51:49;;;;;;;4.75;1.27;;;;;;;12.26;67.02;97028.50;5008484;28;102707;-69
2024/02/08 12:54:17;;;;;;;8.35;1.23;;;;;;;12.26;67.49;97019.72;5003611;28;103234;-69
2024/02/08 12:56:46;;;;;;;4.13;1.10;;;;;;;12.21;67.10;97016.91;4982768;27;104290;-69
2024/02/08 12:59:19;;;;;;;8.18;1.20;;;;;;;12.25;67.37;97028.75;4984730;27;104240;-70
2024/02/08 13:01:48;;;;;;;8.15;1.40;;;;;;;12.21;67.19;97030.19;4999731;28;104144;-69
2024/02/08 13:04:17;;;;;;;8.93;1.35;;;;;;;12.18;67.21;97025.31;4996381;28;103907;-69
2024/02/08 13:06:49;;;;;;;8.90;1.40;;;;;;;12.17;67.26;97031.66;4997880;28;103825;-69
2024/02/08 13:09:26;;;;;;;10.30;1.77;;;;;;;12.13;67.59;97030.47;4998502;28;103223;-70
2024/02/08 13:12:19;;;;;;;7.93;1.23;;;;;;;12.15;66.84;97033.75;4991856;28;103569;-70
2024/02/08 13:15:02;;;;;;;8.05;1.77;;;;;;;12.22;66.56;97013.25;4996711;28;104024;-69
2024/02/08 13:17:33;;;;;;;16.83;1.52;;;;;;;12.34;66.22;97022.09;4995471;28;103256;-67
2024/02/08 13:20:11;;;;;;;4.45;1.58;;;;;;;12.55;66.38;97020.84;4994436;27;103399;-68
2024/02/08 13:22:44;;;;;;;11.43;1.77;;;;;;;12.51;65.32;97017.03;4947074;28;102944;-68
2024/02/08 13:25:13;;;;;;;10.80;1.60;;;;;;;12.58;66.45;97011.63;4981035;28;103189;-68
2024/02/08 13:27:44;;;;;;;9.35;1.52;;;;;;;12.52;64.87;97001.88;4979779;28;103373;-68
2024/02/08 13:30:18;;;;;;;12.73;1.95;;;;;;;12.36;64.06;97004.09;4979984;28;104393;-68
2024/02/08 13:32:49;;;;;;;20.70;2.22;;;;;;;12.41;63.79;97000.78;4976947;28;104315;-68
2024/02/08 13:35:28;;;;;;;11.02;1.80;;;;;;;12.46;64.23;96997.47;4991372;28;104057;-68
2024/02/08 13:39:59;;;;;;;11.80;2.08;;;;;;;12.59;63.94;96982.19;4982585;28;102973;-68
2024/02/08 13:42:55;;;;;;;;;;;;;;;12.63;64.46;96979.91;4961908;28;103116;-68
2024/02/08 13:45:28;;;;;;;11.32;2.38;;;;;;;12.64;64.44;96984.16;4956251;28;102714;-68
2024/02/08 13:47:56;;;;;;;11.32;2.40;;;;;;;12.64;64.10;96986.81;4986260;28;102834;-68
2024/02/08 13:50:28;;;;;;;10.43;2.17;;;;;;;12.69;63.52;96980.84;4979717;28;104296;-68
2024/02/08 13:53:01;;;;;;;11.68;2.13;;;;;;;12.74;63.79;96983.66;4970084;28;104122;-68
2024/02/08 13:55:33;;;;;;;15.60;2.60;;;;;;;12.75;63.91;96986.06;4975095;28;103231;-68
2024/02/08 13:58:20;;;;;;;13.15;2.90;;;;;;;12.77;64.38;96984.03;4988334;28;102734;-68
2024/02/08 14:00:49;;;;;;;10.07;2.15;;;;;;;12.72;63.92;96997.16;4986432;28;103864;-68
2024/02/08 14:03:19;;;;;;;18.65;3.42;;;;;;;12.50;63.58;96988.00;4989271;28;103196;-68
2024/02/08 14:05:51;;;;;;;13.40;2.85;;;;;;;12.40;64.21;96988.53;4991729;28;103397;-69